createdAt,value
2022-08-09T00:01:52.614Z,36.40
2022-08-09T00:03:57.129Z,36.40
2022-08-09T00:06:17.446Z,36.40
2022-08-09T00:08:31.951Z,36.40
2022-08-09T00:10:35.671Z,36.30
2022-08-09T00:12:37.589Z,36.30
2022-08-09T00:14:40.330Z,36.50
2022-08-09T00:16:47.358Z,36.40
2022-08-09T00:18:49.573Z,36.50
2022-08-09T00:20:51.242Z,36.80
2022-08-09T00:22:53.090Z,36.50
2022-08-09T00:24:55.664Z,36.50
2022-08-09T00:26:59.824Z,36.50
2022-08-09T00:29:02.361Z,36.50
2022-08-09T00:31:30.639Z,36.70
2022-08-09T00:33:32.537Z,36.50
2022-08-09T00:35:48.393Z,36.50
2022-08-09T00:37:50.046Z,37.30
2022-08-09T00:40:13.460Z,36.80
2022-08-09T00:44:11.082Z,36.70
2022-08-09T00:44:37.578Z,36.80
2022-08-09T00:46:56.865Z,37.00
2022-08-09T00:49:01.052Z,37.00
2022-08-09T00:51:10.245Z,37.10
2022-08-09T00:53:13.842Z,37.10
2022-08-09T00:56:03.212Z,37.30
2022-08-09T00:57:38.784Z,37.20
2022-08-09T00:59:47.050Z,37.30
2022-08-09T01:01:54.537Z,37.30
2022-08-09T01:04:06.760Z,37.30
2022-08-09T01:06:17.435Z,37.30
2022-08-09T01:08:26.737Z,37.10
2022-08-09T01:10:34.117Z,37.10
2022-08-09T01:12:40.975Z,37.20
2022-08-09T01:14:52.395Z,37.30
2022-08-09T01:16:58.757Z,37.30
2022-08-09T01:19:04.206Z,37.40
2022-08-09T01:21:12.401Z,37.30
2022-08-09T01:24:03.465Z,37.40
2022-08-09T01:25:41.641Z,37.30
2022-08-09T01:27:45.360Z,37.50
2022-08-09T01:29:57.517Z,37.60
2022-08-09T01:32:43.778Z,37.60
2022-08-09T01:34:24.937Z,37.80
2022-08-09T01:36:28.390Z,37.90
2022-08-09T01:38:31.394Z,37.70
2022-08-09T01:40:35.657Z,37.60
2022-08-09T01:42:38.507Z,37.80
2022-08-09T01:44:42.157Z,37.90
2022-08-09T01:46:46.937Z,38.00
2022-08-09T01:48:50.279Z,38.00
2022-08-09T01:50:55.535Z,38.30
2022-08-09T01:53:00.077Z,38.10
2022-08-09T01:55:03.388Z,38.20
2022-08-09T01:57:08.588Z,38.30
2022-08-09T01:59:16.034Z,38.30
2022-08-09T02:01:18.824Z,38.20
2022-08-09T02:03:21.528Z,38.30
2022-08-09T02:05:38.145Z,38.20
2022-08-09T02:08:40.511Z,38.30
2022-08-09T02:10:28.592Z,38.50
2022-08-09T02:12:33.401Z,38.50
2022-08-09T02:14:37.283Z,38.60
2022-08-09T02:16:59.633Z,38.50
2022-08-09T02:19:01.684Z,38.70
2022-08-09T02:21:08.955Z,38.80
2022-08-09T02:23:31.891Z,38.60
2022-08-09T02:25:49.702Z,38.90
2022-08-09T02:28:03.606Z,38.90
2022-08-09T02:30:07.759Z,38.80
2022-08-09T02:32:10.811Z,38.80
2022-08-09T02:34:25.744Z,38.80
2022-08-09T02:36:42.085Z,38.90
2022-08-09T02:38:49.753Z,39.10
2022-08-09T02:40:52.775Z,38.90
2022-08-09T02:42:59.996Z,38.90
2022-08-09T02:45:03.617Z,38.90
2022-08-09T02:47:06.734Z,38.90
2022-08-09T02:49:14.493Z,39.00
2022-08-09T02:51:17.351Z,39.00
2022-08-09T02:53:52.994Z,39.20
2022-08-09T02:56:03.410Z,39.00
2022-08-09T02:58:32.604Z,39.00
2022-08-09T03:00:27.835Z,39.20
2022-08-09T03:02:32.198Z,39.40
2022-08-09T03:04:37.566Z,39.30
2022-08-09T03:06:40.350Z,39.20
2022-08-09T03:08:44.181Z,39.40
2022-08-09T03:10:46.255Z,39.30
2022-08-09T03:12:53.144Z,39.30
2022-08-09T03:14:55.190Z,39.30
2022-08-09T03:16:58.225Z,39.30
2022-08-09T03:19:02.033Z,39.50
2022-08-09T03:21:05.165Z,39.70
2022-08-09T03:23:15.072Z,39.80
2022-08-09T03:25:58.093Z,39.60
2022-08-09T03:27:50.503Z,39.60
2022-08-09T03:29:57.558Z,39.60
2022-08-09T03:32:03.414Z,39.10
2022-08-09T03:34:05.536Z,39.60
2022-08-09T03:36:16.275Z,39.70
2022-08-09T03:38:28.836Z,39.40
2022-08-09T03:40:32.230Z,39.80
2022-08-09T03:42:34.863Z,39.80
2022-08-09T03:44:36.634Z,39.80
2022-08-09T03:46:39.473Z,39.60
2022-08-09T03:48:42.893Z,40.00
2022-08-09T03:50:54.347Z,39.80
2022-08-09T03:53:01.005Z,40.20
2022-08-09T03:55:07.663Z,40.20
2022-08-09T03:57:20.199Z,40.20
2022-08-09T03:59:42.749Z,40.20
2022-08-09T04:01:45.655Z,40.20
2022-08-09T04:04:02.207Z,40.20
2022-08-09T04:06:06.514Z,40.30
2022-08-09T04:08:09.036Z,40.40
2022-08-09T04:10:10.808Z,40.30
2022-08-09T04:12:31.007Z,40.20
2022-08-09T04:14:53.467Z,40.40
2022-08-09T04:16:54.866Z,40.30
2022-08-09T04:18:59.658Z,40.40
2022-08-09T04:21:03.897Z,40.70
2022-08-09T04:23:09.961Z,41.00
2022-08-09T04:25:12.200Z,40.50
2022-08-09T04:27:14.754Z,41.00
2022-08-09T04:29:16.433Z,40.80
2022-08-09T04:31:18.074Z,40.70
2022-08-09T04:33:23.301Z,40.90
2022-08-09T04:35:32.615Z,40.80
2022-08-09T04:37:45.120Z,40.80
2022-08-09T04:39:49.159Z,40.80
2022-08-09T04:41:51.223Z,40.90
2022-08-09T04:44:05.193Z,41.00
2022-08-09T04:46:19.219Z,40.90
2022-08-09T04:48:33.600Z,40.90
2022-08-09T04:50:38.027Z,41.20
2022-08-09T04:52:39.872Z,41.20
2022-08-09T04:54:42.842Z,41.90
2022-08-09T04:56:45.517Z,41.10
2022-08-09T04:58:47.240Z,41.20
2022-08-09T05:00:52.798Z,41.30
2022-08-09T05:02:56.829Z,41.50
2022-08-09T05:04:58.642Z,41.50
2022-08-09T05:07:12.775Z,41.20
2022-08-09T05:09:21.466Z,41.30
2022-08-09T05:11:23.637Z,41.50
2022-08-09T05:13:33.102Z,41.70
2022-08-09T05:15:42.692Z,41.70
2022-08-09T05:18:38.949Z,41.90
2022-08-09T05:20:11.336Z,42.50
2022-08-09T05:22:35.960Z,42.00
2022-08-09T05:24:35.779Z,42.70
2022-08-09T05:26:45.637Z,42.60
2022-08-09T05:28:49.204Z,42.40
2022-08-09T05:30:54.137Z,42.70
2022-08-09T05:32:55.896Z,42.20
2022-08-09T05:34:57.618Z,42.30
2022-08-09T05:37:01.609Z,42.40
2022-08-09T05:39:04.082Z,42.40
2022-08-09T05:41:06.847Z,42.30
2022-08-09T05:43:14.455Z,42.50
2022-08-09T05:45:18.748Z,42.40
2022-08-09T05:47:21.808Z,42.50
2022-08-09T05:49:33.812Z,42.80
2022-08-09T05:51:46.742Z,42.70
2022-08-09T05:53:56.639Z,42.60
2022-08-09T05:55:59.858Z,42.70
2022-08-09T05:58:04.192Z,42.70
2022-08-09T06:00:09.614Z,42.70
2022-08-09T06:02:17.142Z,42.90
2022-08-09T06:04:23.652Z,42.90
2022-08-09T06:06:25.496Z,43.10
2022-08-09T06:08:28.055Z,43.00
2022-08-09T06:10:39.407Z,42.90
2022-08-09T06:12:42.098Z,42.90
2022-08-09T06:14:44.201Z,43.00
2022-08-09T06:16:52.151Z,42.90
2022-08-09T06:18:54.920Z,43.10
2022-08-09T06:20:58.415Z,43.00
2022-08-09T06:23:00.362Z,43.10
2022-08-09T06:25:02.136Z,43.30
2022-08-09T06:27:03.900Z,42.90
2022-08-09T06:29:05.712Z,43.00
2022-08-09T06:31:07.434Z,42.70
2022-08-09T06:33:40.097Z,42.90
2022-08-09T06:35:56.548Z,42.80
2022-08-09T06:38:05.414Z,43.00
2022-08-09T06:40:21.656Z,42.70
2022-08-09T06:42:28.522Z,42.80
2022-08-09T06:44:32.749Z,42.70
2022-08-09T06:46:40.089Z,43.00
2022-08-09T06:48:43.216Z,43.00
2022-08-09T06:50:45.161Z,42.90
2022-08-09T06:52:48.819Z,42.90
2022-08-09T06:54:50.866Z,42.80
2022-08-09T06:56:52.544Z,43.00
2022-08-09T07:00:50.509Z,42.90
2022-08-09T07:01:16.083Z,42.80
2022-08-09T07:03:18.681Z,42.80
2022-08-09T07:05:20.489Z,42.70
2022-08-09T07:07:28.549Z,42.60
2022-08-09T07:09:54.269Z,42.60
2022-08-09T07:12:02.508Z,42.40
2022-08-09T07:14:06.223Z,42.40
2022-08-09T07:16:39.912Z,42.20
2022-08-09T07:18:31.358Z,42.10
2022-08-09T07:20:33.720Z,42.00
2022-08-09T07:22:49.612Z,42.30
2022-08-09T07:24:55.076Z,42.70
2022-08-09T07:26:57.266Z,41.90
2022-08-09T07:29:09.211Z,41.90
2022-08-09T07:31:14.057Z,42.00
2022-08-09T07:33:17.893Z,41.70
2022-08-09T07:35:19.697Z,41.80
2022-08-09T07:37:22.020Z,41.60
2022-08-09T07:39:40.482Z,41.70
2022-08-09T07:41:43.518Z,41.70
2022-08-09T07:43:55.724Z,41.70
2022-08-09T07:46:03.026Z,41.70
2022-08-09T07:48:05.338Z,41.60
2022-08-09T07:50:08.633Z,41.60
2022-08-09T07:52:16.841Z,41.60
2022-08-09T07:54:27.895Z,41.60
2022-08-09T07:56:33.598Z,41.60
2022-08-09T07:58:35.618Z,41.40
2022-08-09T08:00:37.436Z,41.40
2022-08-09T08:02:58.511Z,41.50
2022-08-09T08:05:00.303Z,41.40
2022-08-09T08:07:15.467Z,41.30
2022-08-09T08:09:38.604Z,41.30
2022-08-09T08:12:10.283Z,41.10
2022-08-09T08:14:07.803Z,41.20
2022-08-09T08:16:31.315Z,41.10
2022-08-09T08:18:32.348Z,41.00
2022-08-09T08:20:34.104Z,40.90
2022-08-09T08:22:35.839Z,40.90
2022-08-09T08:24:40.714Z,40.90
2022-08-09T08:26:56.225Z,40.90
2022-08-09T08:28:58.396Z,40.90
2022-08-09T08:31:13.695Z,40.80
2022-08-09T08:33:23.623Z,40.80
2022-08-09T08:35:37.051Z,40.70
2022-08-09T08:38:02.197Z,40.80
2022-08-09T08:40:09.894Z,40.70
2022-08-09T08:42:12.905Z,40.70
2022-08-09T08:44:15.486Z,40.80
2022-08-09T08:46:33.694Z,40.60
2022-08-09T08:48:51.443Z,40.50
2022-08-09T08:50:53.900Z,40.40
2022-08-09T08:52:59.420Z,40.40
2022-08-09T08:55:04.050Z,40.40
2022-08-09T08:57:11.500Z,40.20
2022-08-09T08:59:19.101Z,40.10
2022-08-09T09:01:25.055Z,39.90
2022-08-09T09:03:44.476Z,39.90
2022-08-09T09:05:58.973Z,39.90
2022-08-09T09:08:05.874Z,40.00
2022-08-09T09:10:28.986Z,39.90
2022-08-09T09:12:34.213Z,40.00
2022-08-09T09:14:37.792Z,39.70
2022-08-09T09:16:39.553Z,39.70
2022-08-09T09:18:48.052Z,39.50
2022-08-09T09:20:50.558Z,39.50
2022-08-09T09:22:55.644Z,39.50
2022-08-09T09:26:00.985Z,39.40
2022-08-09T09:28:03.058Z,39.30
2022-08-09T09:30:11.589Z,39.30
2022-08-09T09:32:15.044Z,39.40
2022-08-09T09:34:18.382Z,39.30
2022-08-09T09:36:21.257Z,39.30
2022-08-09T09:38:38.828Z,39.20
2022-08-09T09:40:41.045Z,38.90
2022-08-09T09:42:56.937Z,39.00
2022-08-09T09:45:03.649Z,39.00
2022-08-09T09:47:09.274Z,38.70
2022-08-09T09:49:12.807Z,38.70
2022-08-09T09:51:37.951Z,38.70
2022-08-09T09:53:57.791Z,38.80
2022-08-09T09:56:05.391Z,38.60
2022-08-09T09:58:17.159Z,38.50
2022-08-09T10:00:25.830Z,38.60
2022-08-09T10:02:29.366Z,38.60
2022-08-09T10:04:31.623Z,38.50
2022-08-09T10:06:42.995Z,38.40
2022-08-09T10:08:55.194Z,38.20
2022-08-09T10:10:59.604Z,38.30
2022-08-09T10:13:01.283Z,37.90
2022-08-09T10:15:04.466Z,37.60
2022-08-09T10:17:40.101Z,38.00
2022-08-09T10:19:34.622Z,38.00
2022-08-09T10:21:44.443Z,37.70
2022-08-09T10:23:51.099Z,37.80
2022-08-09T10:26:06.008Z,37.30
2022-08-09T10:28:12.766Z,37.60
2022-08-09T10:32:40.059Z,37.80
2022-08-09T10:34:45.852Z,37.80
2022-08-09T10:36:56.908Z,37.80
2022-08-09T10:39:00.312Z,37.60
2022-08-09T10:41:02.528Z,37.80
2022-08-09T10:43:05.277Z,37.10
2022-08-09T10:45:15.667Z,37.30
2022-08-09T10:48:16.614Z,37.40
2022-08-09T10:49:51.290Z,37.30
2022-08-09T10:52:05.343Z,37.30
2022-08-09T10:54:12.494Z,37.70
2022-08-09T10:56:16.314Z,37.50
2022-08-09T10:58:33.474Z,37.50
2022-08-09T11:00:50.968Z,37.60
2022-08-09T11:03:14.819Z,37.40
2022-08-09T11:05:25.470Z,37.30
2022-08-09T11:07:57.647Z,36.70
2022-08-09T11:09:53.711Z,36.80
2022-08-09T11:12:10.304Z,36.90
2022-08-09T11:14:35.267Z,36.60
2022-08-09T11:16:39.311Z,37.10
2022-08-09T11:18:44.973Z,37.10
2022-08-09T11:20:50.104Z,37.10
2022-08-09T11:22:57.199Z,36.90
2022-08-09T11:25:15.281Z,36.90
2022-08-09T11:28:04.127Z,36.80
2022-08-09T11:30:06.077Z,36.70
2022-08-09T11:32:38.588Z,36.50
2022-08-09T11:34:45.552Z,36.70
2022-08-09T11:36:51.662Z,36.70
2022-08-09T11:39:03.170Z,36.40
2022-08-09T11:41:12.842Z,36.20
2022-08-09T11:43:15.869Z,36.10
2022-08-09T11:45:42.131Z,36.30
2022-08-09T11:47:46.110Z,36.20
2022-08-09T11:50:55.163Z,36.20
2022-08-09T11:52:56.408Z,35.70
2022-08-09T11:54:41.756Z,36.20
2022-08-09T11:56:47.806Z,35.90
2022-08-09T11:58:54.513Z,35.90
2022-08-09T12:01:08.828Z,35.60
2022-08-09T12:03:55.326Z,35.60
2022-08-09T12:05:51.620Z,35.50
2022-08-09T12:07:54.747Z,35.80
2022-08-09T12:09:59.939Z,35.30
2022-08-09T12:12:13.201Z,35.60
2022-08-09T12:14:41.039Z,35.60
2022-08-09T12:16:50.739Z,36.30
2022-08-09T12:18:55.849Z,35.40
2022-08-09T12:21:00.278Z,35.00
2022-08-09T12:23:03.394Z,35.10
2022-08-09T12:25:14.729Z,35.00
2022-08-09T12:29:10.434Z,34.60
2022-08-09T12:30:04.036Z,34.50
2022-08-09T12:32:14.426Z,34.50
2022-08-09T12:34:31.237Z,34.30
2022-08-09T12:36:34.134Z,34.60
2022-08-09T12:38:38.839Z,34.40
2022-08-09T12:40:43.734Z,33.80
2022-08-09T12:42:45.934Z,34.00
2022-08-09T12:44:52.193Z,34.20
2022-08-09T12:46:56.449Z,34.40
2022-08-09T12:48:58.834Z,33.60
2022-08-09T12:51:03.675Z,34.10
2022-08-09T12:53:17.445Z,33.80
2022-08-09T12:56:11.593Z,33.40
2022-08-09T12:57:50.773Z,33.00
2022-08-09T13:00:09.817Z,33.10
2022-08-09T13:02:15.192Z,32.90
2022-08-09T13:04:33.170Z,33.00
2022-08-09T13:06:44.122Z,32.90
2022-08-09T13:08:58.863Z,32.60
2022-08-09T13:11:23.401Z,32.80
2022-08-09T13:13:28.367Z,32.40
2022-08-09T13:15:50.784Z,32.80
2022-08-09T13:18:05.072Z,32.90
2022-08-09T13:20:14.428Z,32.30
2022-08-09T13:22:37.022Z,32.10
2022-08-09T13:24:54.162Z,31.50
2022-08-09T13:26:57.992Z,31.60
2022-08-09T13:29:06.396Z,32.40
2022-08-09T13:32:14.018Z,32.40
2022-08-09T13:33:53.176Z,31.50
2022-08-09T13:36:24.762Z,31.00
2022-08-09T13:38:32.988Z,30.80
2022-08-09T13:41:45.907Z,31.40
2022-08-09T13:42:58.938Z,31.50
2022-08-09T13:45:00.757Z,31.30
2022-08-09T13:47:27.705Z,31.60
2022-08-09T13:49:24.886Z,31.70
2022-08-09T13:51:40.060Z,31.20
2022-08-09T13:53:54.092Z,31.10
2022-08-09T13:55:56.767Z,31.30
2022-08-09T13:57:59.793Z,30.70
2022-08-09T14:00:01.729Z,31.40
2022-08-09T14:02:13.203Z,31.40
2022-08-09T14:04:23.610Z,30.80
2022-08-09T14:06:29.286Z,31.20
2022-08-09T14:08:31.468Z,30.90
2022-08-09T14:10:45.959Z,30.80
2022-08-09T14:12:48.367Z,30.90
2022-08-09T14:14:53.844Z,31.20
2022-08-09T14:16:58.760Z,30.90
2022-08-09T14:19:00.493Z,30.80
2022-08-09T14:21:03.336Z,31.30
2022-08-09T14:23:07.752Z,30.80
2022-08-09T14:25:10.181Z,30.80
2022-08-09T14:27:19.811Z,30.60
2022-08-09T14:30:04.440Z,30.60
2022-08-09T14:31:50.187Z,30.70
2022-08-09T14:33:54.766Z,30.80
2022-08-09T14:35:56.535Z,30.90
2022-08-09T14:38:02.693Z,30.60
2022-08-09T14:40:05.162Z,30.30
2022-08-09T14:42:07.061Z,30.40
2022-08-09T14:44:11.131Z,30.40
2022-08-09T14:47:00.823Z,30.10
2022-08-09T14:48:34.941Z,29.90
2022-08-09T14:50:37.318Z,29.90
2022-08-09T14:52:39.079Z,30.00
2022-08-09T14:54:40.845Z,30.30
2022-08-09T14:56:57.900Z,30.20
2022-08-09T14:59:00.706Z,30.10
2022-08-09T15:01:02.477Z,30.20
2022-08-09T15:03:06.817Z,30.00
2022-08-09T15:05:10.391Z,29.90
2022-08-09T15:07:12.571Z,30.10
2022-08-09T15:09:15.201Z,29.80
2022-08-09T15:11:16.946Z,30.00
2022-08-09T15:13:18.694Z,30.00
2022-08-09T15:15:21.067Z,30.00
2022-08-09T15:17:23.071Z,29.10
2022-08-09T15:19:27.202Z,29.70
2022-08-09T15:21:56.592Z,29.20
2022-08-09T15:24:09.305Z,29.30
2022-08-09T15:26:18.568Z,29.50
2022-08-09T15:28:28.161Z,29.40
2022-08-09T15:30:55.432Z,29.50
2022-08-09T15:32:52.816Z,29.50
2022-08-09T15:34:55.193Z,29.10
2022-08-09T15:36:58.568Z,29.50
2022-08-09T15:39:00.681Z,29.50
2022-08-09T15:41:09.508Z,29.60
2022-08-09T15:43:13.617Z,29.60
2022-08-09T15:45:16.450Z,29.40
2022-08-09T15:47:47.069Z,29.20
2022-08-09T15:50:00.473Z,29.10
2022-08-09T15:52:06.202Z,28.70
2022-08-09T15:54:20.083Z,29.00
2022-08-09T15:56:31.075Z,29.10
2022-08-09T15:58:32.995Z,29.40
2022-08-09T16:00:34.761Z,28.50
2022-08-09T16:02:37.279Z,28.50
2022-08-09T16:04:38.939Z,28.30
2022-08-09T16:06:44.768Z,28.30
2022-08-09T16:08:52.123Z,28.40
2022-08-09T16:10:55.964Z,28.70
2022-08-09T16:12:58.446Z,28.70
2022-08-09T16:15:01.946Z,28.50
2022-08-09T16:17:03.816Z,28.70
2022-08-09T16:19:07.593Z,29.20
2022-08-09T16:21:09.507Z,28.60
2022-08-09T16:23:13.208Z,28.80
2022-08-09T16:25:15.791Z,28.70
2022-08-09T16:27:18.000Z,28.60
2022-08-09T16:29:20.152Z,28.30
2022-08-09T16:32:10.627Z,28.40
2022-08-09T16:33:43.890Z,28.50
2022-08-09T16:35:55.823Z,28.40
2022-08-09T16:38:00.282Z,28.40
2022-08-09T16:40:05.623Z,28.30
2022-08-09T16:42:07.925Z,28.40
2022-08-09T16:44:10.398Z,28.50
2022-08-09T16:46:14.503Z,28.20
2022-08-09T16:48:39.161Z,28.00
2022-08-09T16:50:38.982Z,28.00
2022-08-09T16:52:41.010Z,27.90
2022-08-09T16:54:44.806Z,28.00
2022-08-09T16:56:49.501Z,27.70
2022-08-09T16:58:52.188Z,27.70
2022-08-09T17:00:54.958Z,27.80
2022-08-09T17:02:57.339Z,27.80
2022-08-09T17:04:59.796Z,27.90
2022-08-09T17:08:41.282Z,27.90
2022-08-09T17:09:43.939Z,28.00
2022-08-09T17:11:51.282Z,28.00
2022-08-09T17:14:01.555Z,28.00
2022-08-09T17:16:03.918Z,28.00
2022-08-09T17:18:06.848Z,28.00
2022-08-09T17:20:32.452Z,28.00
2022-08-09T17:22:35.862Z,28.10
2022-08-09T17:24:37.918Z,28.10
2022-08-09T17:26:52.039Z,28.20
2022-08-09T17:28:55.458Z,28.30
2022-08-09T17:30:57.182Z,28.50
2022-08-09T17:33:05.730Z,28.50
2022-08-09T17:35:24.243Z,28.50
2022-08-09T17:37:29.564Z,28.40
2022-08-09T17:39:52.300Z,28.50
2022-08-09T17:41:53.871Z,28.60
2022-08-09T17:44:42.126Z,28.60
2022-08-09T17:46:17.537Z,28.50
2022-08-09T17:48:19.558Z,28.70
2022-08-09T17:50:37.153Z,28.70
2022-08-09T17:52:39.674Z,28.70
2022-08-09T17:54:41.561Z,28.80
2022-08-09T17:56:43.865Z,28.80
2022-08-09T17:58:47.169Z,28.80
2022-08-09T18:00:49.139Z,28.80
2022-08-09T18:02:58.625Z,29.10
2022-08-09T18:05:00.821Z,29.10
2022-08-09T18:07:04.459Z,29.10
2022-08-09T18:09:06.797Z,29.10
2022-08-09T18:11:08.549Z,29.20
2022-08-09T18:13:39.067Z,29.30
2022-08-09T18:16:05.108Z,29.40
2022-08-09T18:18:08.123Z,29.40
2022-08-09T18:20:56.592Z,29.60
2022-08-09T18:22:33.938Z,29.70
2022-08-09T18:24:39.037Z,29.80
2022-08-09T18:26:46.399Z,29.80
2022-08-09T18:30:42.422Z,29.80
2022-08-09T18:31:11.014Z,30.00
2022-08-09T18:33:15.057Z,30.00
2022-08-09T18:35:17.090Z,30.00
2022-08-09T18:37:47.869Z,30.20
2022-08-09T18:39:45.956Z,30.10
2022-08-09T18:41:53.105Z,30.20
2022-08-09T18:43:55.678Z,30.40
2022-08-09T18:46:48.425Z,30.60
2022-08-09T18:48:19.224Z,30.60
2022-08-09T18:50:22.163Z,30.80
2022-08-09T18:52:28.600Z,30.90
2022-08-09T18:54:36.987Z,30.90
2022-08-09T18:56:38.700Z,31.00
2022-08-09T18:58:40.437Z,31.10
2022-08-09T19:00:42.283Z,31.00
2022-08-09T19:02:44.630Z,31.20
2022-08-09T19:05:03.286Z,31.10
2022-08-09T19:07:09.762Z,31.10
2022-08-09T19:09:13.736Z,31.30
2022-08-09T19:11:37.363Z,31.50
2022-08-09T19:13:51.431Z,31.60
2022-08-09T19:15:55.851Z,31.70
2022-08-09T19:17:59.111Z,31.80
2022-08-09T19:20:02.046Z,31.90
2022-08-09T19:22:06.864Z,32.00
2022-08-09T19:24:32.781Z,31.90
2022-08-09T19:26:35.168Z,32.00
2022-08-09T19:28:38.271Z,32.00
2022-08-09T19:30:44.943Z,32.00
2022-08-09T19:32:52.988Z,32.40
2022-08-09T19:34:57.346Z,32.50
2022-08-09T19:36:59.250Z,32.60
2022-08-09T19:39:05.614Z,32.80
2022-08-09T19:41:07.770Z,32.60
2022-08-09T19:43:16.177Z,33.00
2022-08-09T19:45:40.192Z,32.90
2022-08-09T19:47:44.727Z,33.30
2022-08-09T19:50:09.906Z,33.40
2022-08-09T19:52:12.273Z,33.40
2022-08-09T19:54:14.532Z,33.30
2022-08-09T19:56:16.570Z,33.20
2022-08-09T19:58:30.506Z,33.10
2022-08-09T20:00:32.812Z,33.60
2022-08-09T20:04:12.547Z,33.60
2022-08-09T20:04:57.559Z,33.80
2022-08-09T20:06:59.946Z,33.70
2022-08-09T20:09:05.840Z,33.80
2022-08-09T20:11:08.120Z,34.40
2022-08-09T20:13:10.410Z,33.80
2022-08-09T20:16:37.772Z,33.90
2022-08-09T20:17:48.445Z,34.00
2022-08-09T20:19:56.386Z,34.10
2022-08-09T20:22:00.355Z,34.30
2022-08-09T20:24:02.934Z,34.40
2022-08-09T20:26:06.741Z,34.40
2022-08-09T20:28:08.813Z,34.60
2022-08-09T20:30:14.912Z,34.50
2022-08-09T20:32:31.132Z,34.60
2022-08-09T20:34:35.460Z,34.60
2022-08-09T20:36:40.109Z,34.60
2022-08-09T20:39:28.818Z,34.90
2022-08-09T20:41:05.952Z,35.00
2022-08-09T20:43:18.356Z,34.70
2022-08-09T20:46:01.921Z,34.80
2022-08-09T20:47:48.611Z,34.80
2022-08-09T20:49:50.793Z,34.90
2022-08-09T20:51:52.722Z,35.30
2022-08-09T20:53:56.149Z,35.20
2022-08-09T20:56:01.064Z,35.30
2022-08-09T20:58:07.702Z,35.50
2022-08-09T21:00:32.088Z,35.50
2022-08-09T21:02:34.758Z,35.30
2022-08-09T21:05:52.813Z,35.30
2022-08-09T21:06:58.424Z,35.50
2022-08-09T21:09:00.418Z,35.30
2022-08-09T21:11:02.747Z,35.40
2022-08-09T21:13:08.264Z,35.30
2022-08-09T21:15:14.295Z,36.10
2022-08-09T21:18:21.908Z,36.10
2022-08-09T21:20:18.482Z,35.40
2022-08-09T21:22:02.769Z,35.50
2022-08-09T21:24:04.932Z,35.70
2022-08-09T21:26:08.457Z,35.80
2022-08-09T21:28:12.068Z,35.70
2022-08-09T21:30:14.135Z,35.50
2022-08-09T21:32:20.536Z,35.20
2022-08-09T21:34:35.221Z,35.20
2022-08-09T21:36:36.968Z,35.20
2022-08-09T21:38:38.696Z,35.40
2022-08-09T21:40:40.895Z,35.40
2022-08-09T21:42:42.849Z,35.30
2022-08-09T21:44:46.496Z,35.40
2022-08-09T21:46:49.997Z,35.30
2022-08-09T21:48:52.533Z,35.30
2022-08-09T21:50:54.462Z,35.30
2022-08-09T21:52:56.713Z,35.60
2022-08-09T21:55:04.023Z,35.40
2022-08-09T21:57:06.565Z,35.20
2022-08-09T21:59:28.550Z,35.20
2022-08-09T22:02:01.054Z,35.20
2022-08-09T22:04:03.759Z,35.20
2022-08-09T22:06:05.575Z,35.20
2022-08-09T22:08:13.052Z,35.10
2022-08-09T22:10:15.677Z,35.10
2022-08-09T22:12:30.807Z,35.40
2022-08-09T22:14:33.794Z,35.50
2022-08-09T22:16:37.430Z,35.40
2022-08-09T22:18:52.258Z,35.10
2022-08-09T22:20:56.740Z,35.10
2022-08-09T22:22:59.198Z,35.10
2022-08-09T22:26:08.248Z,35.10
2022-08-09T22:27:22.845Z,35.10
2022-08-09T22:29:32.425Z,35.70
2022-08-09T22:31:57.560Z,34.90
2022-08-09T22:33:59.642Z,34.80
2022-08-09T22:36:03.714Z,34.70
2022-08-09T22:38:07.508Z,34.70
2022-08-09T22:40:10.529Z,34.70
2022-08-09T22:42:23.449Z,34.70
2022-08-09T22:44:25.860Z,34.70
2022-08-09T22:48:18.730Z,34.70
2022-08-09T22:48:56.171Z,34.70
2022-08-09T22:51:10.390Z,34.90
2022-08-09T22:53:12.718Z,34.80
2022-08-09T22:55:22.553Z,34.60
2022-08-09T22:57:35.632Z,34.60
2022-08-09T22:59:57.131Z,34.60
2022-08-09T23:01:59.919Z,34.50
2022-08-09T23:04:04.517Z,35.20
2022-08-09T23:06:07.900Z,34.70
2022-08-09T23:08:34.522Z,34.70
2022-08-09T23:10:40.331Z,34.70
2022-08-09T23:12:44.891Z,34.70
2022-08-09T23:14:46.594Z,34.70
2022-08-09T23:16:48.283Z,34.80
2022-08-09T23:18:50.020Z,34.70
2022-08-09T23:20:51.787Z,34.80
2022-08-09T23:22:53.491Z,34.80
2022-08-09T23:24:55.216Z,34.70
2022-08-09T23:26:56.982Z,34.60
2022-08-09T23:28:58.718Z,34.60
2022-08-09T23:31:00.444Z,34.60
2022-08-09T23:33:02.131Z,34.80
2022-08-09T23:35:04.024Z,35.00
2022-08-09T23:37:05.997Z,35.40
2022-08-09T23:39:08.063Z,35.40
2022-08-09T23:41:09.921Z,35.40
2022-08-09T23:43:29.812Z,35.50
2022-08-09T23:45:37.889Z,35.40
2022-08-09T23:47:40.300Z,35.70
2022-08-09T23:49:42.006Z,35.60
2022-08-09T23:51:43.675Z,35.70
2022-08-09T23:53:45.366Z,35.60
2022-08-09T23:55:49.613Z,35.90
2022-08-09T23:58:07.827Z,36.00
